sensor_id;sensor_type;location;lat;lon;timestamp;pressure;altitude;pressure_sealevel;temperature;humidity
15263;BME280;7733;51.554;13.590;2023-09-08T00:01:43;101048.22;;;22.27;58.75
15263;BME280;7733;51.554;13.590;2023-09-08T00:04:08;101051.84;;;22.26;58.90
15263;BME280;7733;51.554;13.590;2023-09-08T00:06:34;101053.91;;;22.02;59.95
15263;BME280;7733;51.554;13.590;2023-09-08T00:09:02;101053.75;;;22.24;58.95
15263;BME280;7733;51.554;13.590;2023-09-08T00:11:28;101047.03;;;22.15;59.41
15263;BME280;7733;51.554;13.590;2023-09-08T00:13:54;101053.41;;;22.12;59.58
15263;BME280;7733;51.554;13.590;2023-09-08T00:16:19;101051.84;;;22.26;59.14
15263;BME280;7733;51.554;13.590;2023-09-08T00:18:45;101054.63;;;21.88;60.09
15263;BME280;7733;51.554;13.590;2023-09-08T00:21:11;101056.81;;;21.44;61.94
15263;BME280;7733;51.554;13.590;2023-09-08T00:23:37;101050.50;;;21.28;62.24
15263;BME280;7733;51.554;13.590;2023-09-08T00:26:03;101044.41;;;21.43;61.44
15263;BME280;7733;51.554;13.590;2023-09-08T00:28:29;101041.63;;;21.63;60.61
15263;BME280;7733;51.554;13.590;2023-09-08T00:30:54;101043.22;;;21.67;60.45
15263;BME280;7733;51.554;13.590;2023-09-08T00:33:20;101047.53;;;21.70;60.48
15263;BME280;7733;51.554;13.590;2023-09-08T00:35:51;101052.31;;;21.63;60.34
15263;BME280;7733;51.554;13.590;2023-09-08T00:38:17;101054.06;;;21.64;60.41
15263;BME280;7733;51.554;13.590;2023-09-08T00:40:43;101045.19;;;21.64;60.71
15263;BME280;7733;51.554;13.590;2023-09-08T00:43:08;101051.78;;;21.74;60.63
15263;BME280;7733;51.554;13.590;2023-09-08T00:45:40;101045.31;;;21.61;61.05
15263;BME280;7733;51.554;13.590;2023-09-08T00:48:07;101048.72;;;21.64;61.26
15263;BME280;7733;51.554;13.590;2023-09-08T00:50:35;101043.81;;;21.55;61.11
15263;BME280;7733;51.554;13.590;2023-09-08T00:53:03;101044.19;;;21.47;61.66
15263;BME280;7733;51.554;13.590;2023-09-08T00:55:30;101044.19;;;21.47;61.63
15263;BME280;7733;51.554;13.590;2023-09-08T00:57:57;101042.19;;;21.34;61.82
15263;BME280;7733;51.554;13.590;2023-09-08T01:00:25;101049.81;;;21.41;62.18
15263;BME280;7733;51.554;13.590;2023-09-08T01:02:51;101041.75;;;21.43;61.97
15263;BME280;7733;51.554;13.590;2023-09-08T01:05:17;101043.84;;;21.36;62.49
15263;BME280;7733;51.554;13.590;2023-09-08T01:07:44;101043.72;;;21.00;63.46
15263;BME280;7733;51.554;13.590;2023-09-08T01:10:10;101041.78;;;21.24;62.04
15263;BME280;7733;51.554;13.590;2023-09-08T01:12:37;101043.28;;;21.30;62.20
15263;BME280;7733;51.554;13.590;2023-09-08T01:15:03;101049.47;;;21.30;61.69
15263;BME280;7733;51.554;13.590;2023-09-08T01:17:34;101047.56;;;21.13;63.17
15263;BME280;7733;51.554;13.590;2023-09-08T01:20:08;101052.78;;;21.35;62.09
15263;BME280;7733;51.554;13.590;2023-09-08T01:23:01;101050.16;;;21.15;63.90
15263;BME280;7733;51.554;13.590;2023-09-08T01:25:29;101051.72;;;20.62;64.53
15263;BME280;7733;51.554;13.590;2023-09-08T01:27:58;101043.19;;;20.54;64.50
15263;BME280;7733;51.554;13.590;2023-09-08T01:30:28;101047.19;;;20.44;64.05
15263;BME280;7733;51.554;13.590;2023-09-08T01:32:58;101052.19;;;20.52;64.30
15263;BME280;7733;51.554;13.590;2023-09-08T01:35:25;101053.75;;;20.76;63.77
15263;BME280;7733;51.554;13.590;2023-09-08T01:37:50;101052.00;;;20.75;63.22
15263;BME280;7733;51.554;13.590;2023-09-08T01:40:16;101045.81;;;20.34;66.25
15263;BME280;7733;51.554;13.590;2023-09-08T01:42:45;101046.84;;;20.52;65.45
15263;BME280;7733;51.554;13.590;2023-09-08T01:45:11;101050.53;;;20.49;65.75
15263;BME280;7733;51.554;13.590;2023-09-08T01:47:38;101046.03;;;20.70;64.20
15263;BME280;7733;51.554;13.590;2023-09-08T01:50:04;101043.06;;;20.76;64.15
15263;BME280;7733;51.554;13.590;2023-09-08T01:52:30;101042.19;;;20.76;64.38
15263;BME280;7733;51.554;13.590;2023-09-08T01:54:56;101044.06;;;20.74;64.12
15263;BME280;7733;51.554;13.590;2023-09-08T01:57:22;101046.63;;;20.16;66.47
15263;BME280;7733;51.554;13.590;2023-09-08T01:59:47;101040.69;;;19.89;66.69
15263;BME280;7733;51.554;13.590;2023-09-08T02:02:14;101039.41;;;20.38;64.46
15263;BME280;7733;51.554;13.590;2023-09-08T02:04:40;101045.69;;;20.37;64.24
15263;BME280;7733;51.554;13.590;2023-09-08T02:07:06;101034.59;;;20.27;64.58
15263;BME280;7733;51.554;13.590;2023-09-08T02:09:34;101041.00;;;20.44;64.17
15263;BME280;7733;51.554;13.590;2023-09-08T02:12:01;101043.72;;;20.42;64.63
15263;BME280;7733;51.554;13.590;2023-09-08T02:14:27;101039.00;;;20.49;64.19
15263;BME280;7733;51.554;13.590;2023-09-08T02:16:54;101045.78;;;20.56;63.53
15263;BME280;7733;51.554;13.590;2023-09-08T02:19:20;101045.50;;;20.42;65.27
15263;BME280;7733;51.554;13.590;2023-09-08T02:21:46;101034.47;;;20.51;64.49
15263;BME280;7733;51.554;13.590;2023-09-08T02:24:12;101041.13;;;20.41;65.41
15263;BME280;7733;51.554;13.590;2023-09-08T02:26:39;101041.44;;;20.53;64.29
15263;BME280;7733;51.554;13.590;2023-09-08T02:29:05;101036.97;;;20.54;64.37
15263;BME280;7733;51.554;13.590;2023-09-08T02:31:30;101038.13;;;20.48;64.53
15263;BME280;7733;51.554;13.590;2023-09-08T02:33:56;101028.97;;;20.33;64.76
15263;BME280;7733;51.554;13.590;2023-09-08T02:36:22;101029.84;;;20.34;64.50
15263;BME280;7733;51.554;13.590;2023-09-08T02:38:55;101039.63;;;20.33;63.88
15263;BME280;7733;51.554;13.590;2023-09-08T02:41:22;101031.25;;;20.22;64.13
15263;BME280;7733;51.554;13.590;2023-09-08T02:43:48;101020.72;;;20.19;64.39
15263;BME280;7733;51.554;13.590;2023-09-08T02:46:14;101024.38;;;20.17;64.39
15263;BME280;7733;51.554;13.590;2023-09-08T02:48:41;101027.19;;;20.14;64.53
15263;BME280;7733;51.554;13.590;2023-09-08T02:51:07;101018.53;;;20.09;64.47
15263;BME280;7733;51.554;13.590;2023-09-08T02:53:33;101025.09;;;20.00;64.98
15263;BME280;7733;51.554;13.590;2023-09-08T02:56:00;101022.72;;;19.94;65.96
15263;BME280;7733;51.554;13.590;2023-09-08T02:58:26;101026.63;;;18.96;71.40
15263;BME280;7733;51.554;13.590;2023-09-08T03:00:53;101021.06;;;19.26;68.29
15263;BME280;7733;51.554;13.590;2023-09-08T03:03:19;101015.69;;;19.49;66.33
15263;BME280;7733;51.554;13.590;2023-09-08T03:05:46;101016.78;;;19.22;67.69
15263;BME280;7733;51.554;13.590;2023-09-08T03:08:12;101012.75;;;19.77;65.31
15263;BME280;7733;51.554;13.590;2023-09-08T03:10:38;101008.31;;;19.78;65.24
15263;BME280;7733;51.554;13.590;2023-09-08T03:13:06;101008.16;;;19.81;65.70
15263;BME280;7733;51.554;13.590;2023-09-08T03:15:34;101019.06;;;19.53;68.69
15263;BME280;7733;51.554;13.590;2023-09-08T03:18:00;101016.25;;;19.57;67.33
15263;BME280;7733;51.554;13.590;2023-09-08T03:20:26;101006.50;;;19.78;66.39
15263;BME280;7733;51.554;13.590;2023-09-08T03:22:53;101008.50;;;19.51;67.56
15263;BME280;7733;51.554;13.590;2023-09-08T03:25:19;101005.09;;;19.69;66.96
15263;BME280;7733;51.554;13.590;2023-09-08T03:27:44;101007.81;;;19.46;68.88
15263;BME280;7733;51.554;13.590;2023-09-08T03:30:10;101013.56;;;19.35;69.84
15263;BME280;7733;51.554;13.590;2023-09-08T03:32:37;101005.91;;;19.50;67.95
15263;BME280;7733;51.554;13.590;2023-09-08T03:35:04;101009.50;;;19.27;68.03
15263;BME280;7733;51.554;13.590;2023-09-08T03:37:34;101013.16;;;19.46;66.54
15263;BME280;7733;51.554;13.590;2023-09-08T03:40:00;101015.56;;;19.52;66.08
15263;BME280;7733;51.554;13.590;2023-09-08T03:42:26;101017.47;;;19.27;66.74
15263;BME280;7733;51.554;13.590;2023-09-08T03:44:51;101024.66;;;19.25;66.49
15263;BME280;7733;51.554;13.590;2023-09-08T03:47:17;101018.94;;;19.34;66.17
15263;BME280;7733;51.554;13.590;2023-09-08T03:49:43;101011.28;;;19.26;66.34
15263;BME280;7733;51.554;13.590;2023-09-08T03:52:09;101016.25;;;18.90;67.96
15263;BME280;7733;51.554;13.590;2023-09-08T03:54:34;101015.97;;;19.20;66.65
15263;BME280;7733;51.554;13.590;2023-09-08T03:57:00;101021.94;;;19.26;67.50
15263;BME280;7733;51.554;13.590;2023-09-08T03:59:26;101019.31;;;19.03;67.65
15263;BME280;7733;51.554;13.590;2023-09-08T04:01:51;101011.22;;;19.28;66.47
15263;BME280;7733;51.554;13.590;2023-09-08T04:04:17;101017.22;;;19.33;65.69
15263;BME280;7733;51.554;13.590;2023-09-08T04:06:45;101011.78;;;19.36;66.51
15263;BME280;7733;51.554;13.590;2023-09-08T04:09:11;101009.19;;;19.34;66.31
15263;BME280;7733;51.554;13.590;2023-09-08T04:11:37;101009.31;;;19.31;66.72
15263;BME280;7733;51.554;13.590;2023-09-08T04:14:02;101012.03;;;19.30;66.87
15263;BME280;7733;51.554;13.590;2023-09-08T04:16:29;101015.00;;;19.22;67.35
15263;BME280;7733;51.554;13.590;2023-09-08T04:18:54;101018.28;;;19.29;67.19
15263;BME280;7733;51.554;13.590;2023-09-08T04:21:20;101015.38;;;19.35;67.32
15263;BME280;7733;51.554;13.590;2023-09-08T04:23:46;101014.00;;;19.47;66.06
15263;BME280;7733;51.554;13.590;2023-09-08T04:26:12;101006.31;;;19.39;66.98
15263;BME280;7733;51.554;13.590;2023-09-08T04:28:38;101012.16;;;19.27;67.46
15263;BME280;7733;51.554;13.590;2023-09-08T04:31:04;101013.50;;;19.15;67.97
15263;BME280;7733;51.554;13.590;2023-09-08T04:33:30;101016.78;;;19.22;66.77
15263;BME280;7733;51.554;13.590;2023-09-08T04:35:56;101016.09;;;19.17;66.79
15263;BME280;7733;51.554;13.590;2023-09-08T04:38:22;101010.03;;;19.13;66.60
15263;BME280;7733;51.554;13.590;2023-09-08T04:40:47;101008.38;;;19.10;66.65
15263;BME280;7733;51.554;13.590;2023-09-08T04:43:13;101006.38;;;19.15;66.26
15263;BME280;7733;51.554;13.590;2023-09-08T04:45:39;101015.41;;;19.11;67.57
15263;BME280;7733;51.554;13.590;2023-09-08T04:48:05;101015.72;;;19.04;66.75
15263;BME280;7733;51.554;13.590;2023-09-08T04:50:31;101010.16;;;19.10;66.15
15263;BME280;7733;51.554;13.590;2023-09-08T04:52:57;101009.88;;;18.94;66.69
15263;BME280;7733;51.554;13.590;2023-09-08T04:55:23;101013.84;;;18.84;67.22
15263;BME280;7733;51.554;13.590;2023-09-08T04:57:48;101008.84;;;18.75;67.98
15263;BME280;7733;51.554;13.590;2023-09-08T05:00:15;101015.28;;;18.44;68.88
15263;BME280;7733;51.554;13.590;2023-09-08T05:02:41;101010.06;;;18.66;68.39
15263;BME280;7733;51.554;13.590;2023-09-08T05:05:07;101010.06;;;18.41;69.78
15263;BME280;7733;51.554;13.590;2023-09-08T05:07:33;101013.66;;;18.89;67.31
15263;BME280;7733;51.554;13.590;2023-09-08T05:09:59;101020.22;;;18.30;69.75
15263;BME280;7733;51.554;13.590;2023-09-08T05:12:24;101016.78;;;18.51;69.46
15263;BME280;7733;51.554;13.590;2023-09-08T05:14:50;101020.16;;;18.80;68.20
15263;BME280;7733;51.554;13.590;2023-09-08T05:17:22;101021.91;;;18.81;67.68
15263;BME280;7733;51.554;13.590;2023-09-08T05:19:48;101023.75;;;18.79;67.69
15263;BME280;7733;51.554;13.590;2023-09-08T05:22:14;101027.53;;;18.48;69.21
15263;BME280;7733;51.554;13.590;2023-09-08T05:24:40;101028.06;;;18.83;67.62
15263;BME280;7733;51.554;13.590;2023-09-08T05:27:05;101029.97;;;19.01;67.04
15263;BME280;7733;51.554;13.590;2023-09-08T05:29:31;101023.78;;;19.02;67.71
15263;BME280;7733;51.554;13.590;2023-09-08T05:31:57;101025.25;;;19.09;68.09
15263;BME280;7733;51.554;13.590;2023-09-08T05:34:22;101030.69;;;19.06;68.73
15263;BME280;7733;51.554;13.590;2023-09-08T05:36:48;101029.03;;;19.04;68.85
15263;BME280;7733;51.554;13.590;2023-09-08T05:39:17;101026.00;;;19.13;69.32
15263;BME280;7733;51.554;13.590;2023-09-08T05:41:45;101029.50;;;19.13;69.92
15263;BME280;7733;51.554;13.590;2023-09-08T05:44:11;101031.16;;;18.94;71.82
15263;BME280;7733;51.554;13.590;2023-09-08T05:46:37;101027.63;;;18.70;73.80
15263;BME280;7733;51.554;13.590;2023-09-08T05:49:02;101033.13;;;18.89;73.94
15263;BME280;7733;51.554;13.590;2023-09-08T05:51:28;101028.91;;;18.83;75.06
15263;BME280;7733;51.554;13.590;2023-09-08T05:53:54;101038.66;;;18.58;77.19
15263;BME280;7733;51.554;13.590;2023-09-08T05:56:20;101035.16;;;19.28;74.50
15263;BME280;7733;51.554;13.590;2023-09-08T05:58:46;101026.53;;;19.44;74.13
15263;BME280;7733;51.554;13.590;2023-09-08T06:01:12;101026.09;;;19.55;74.84
15263;BME280;7733;51.554;13.590;2023-09-08T06:03:38;101025.00;;;19.81;73.23
15263;BME280;7733;51.554;13.590;2023-09-08T06:06:04;101023.91;;;19.87;73.44
15263;BME280;7733;51.554;13.590;2023-09-08T06:08:29;101018.75;;;20.04;73.09
15263;BME280;7733;51.554;13.590;2023-09-08T06:10:55;101022.56;;;20.17;72.74
15263;BME280;7733;51.554;13.590;2023-09-08T06:13:21;101020.91;;;20.35;72.72
15263;BME280;7733;51.554;13.590;2023-09-08T06:15:47;101020.78;;;20.38;72.68
15263;BME280;7733;51.554;13.590;2023-09-08T06:18:12;101027.91;;;20.58;72.65
15263;BME280;7733;51.554;13.590;2023-09-08T06:20:48;101021.00;;;20.54;73.55
15263;BME280;7733;51.554;13.590;2023-09-08T06:23:15;101024.16;;;20.82;72.12
15263;BME280;7733;51.554;13.590;2023-09-08T06:25:41;101022.34;;;20.83;72.89
15263;BME280;7733;51.554;13.590;2023-09-08T06:28:06;101020.75;;;20.98;72.49
15263;BME280;7733;51.554;13.590;2023-09-08T06:30:32;101025.44;;;21.30;70.91
15263;BME280;7733;51.554;13.590;2023-09-08T06:32:58;101023.09;;;21.24;71.11
15263;BME280;7733;51.554;13.590;2023-09-08T06:35:26;101020.59;;;21.38;71.34
15263;BME280;7733;51.554;13.590;2023-09-08T06:37:52;101011.25;;;21.30;72.03
15263;BME280;7733;51.554;13.590;2023-09-08T06:40:18;101017.50;;;21.10;72.67
15263;BME280;7733;51.554;13.590;2023-09-08T06:42:43;101014.69;;;21.32;72.10
15263;BME280;7733;51.554;13.590;2023-09-08T06:45:09;101014.81;;;21.47;71.21
15263;BME280;7733;51.554;13.590;2023-09-08T06:47:35;101014.84;;;21.65;70.49
15263;BME280;7733;51.554;13.590;2023-09-08T06:50:01;101007.66;;;21.84;69.79
15263;BME280;7733;51.554;13.590;2023-09-08T06:52:26;101013.63;;;21.89;69.91
15263;BME280;7733;51.554;13.590;2023-09-08T06:54:52;101006.94;;;22.15;68.24
15263;BME280;7733;51.554;13.590;2023-09-08T06:57:18;101004.41;;;21.95;69.69
15263;BME280;7733;51.554;13.590;2023-09-08T06:59:47;101006.59;;;22.38;67.91
15263;BME280;7733;51.554;13.590;2023-09-08T07:02:13;101005.47;;;22.27;68.09
15263;BME280;7733;51.554;13.590;2023-09-08T07:04:38;101019.41;;;22.49;66.96
15263;BME280;7733;51.554;13.590;2023-09-08T07:07:04;101010.22;;;22.37;67.79
15263;BME280;7733;51.554;13.590;2023-09-08T07:09:36;101019.81;;;22.74;66.25
15263;BME280;7733;51.554;13.590;2023-09-08T07:12:03;101016.44;;;22.71;66.28
15263;BME280;7733;51.554;13.590;2023-09-08T07:14:30;101015.31;;;23.08;64.91
15263;BME280;7733;51.554;13.590;2023-09-08T07:16:56;101017.75;;;23.28;64.23
15263;BME280;7733;51.554;13.590;2023-09-08T07:19:22;101015.47;;;23.21;64.89
15263;BME280;7733;51.554;13.590;2023-09-08T07:21:48;101006.84;;;23.47;64.60
15263;BME280;7733;51.554;13.590;2023-09-08T07:24:13;101025.13;;;23.55;63.17
15263;BME280;7733;51.554;13.590;2023-09-08T07:26:39;101025.06;;;23.72;62.44
15263;BME280;7733;51.554;13.590;2023-09-08T07:29:05;101015.78;;;23.78;62.00
15263;BME280;7733;51.554;13.590;2023-09-08T07:31:30;101022.00;;;23.78;61.16
15263;BME280;7733;51.554;13.590;2023-09-08T07:33:56;101019.06;;;23.83;62.21
15263;BME280;7733;51.554;13.590;2023-09-08T07:36:22;101019.28;;;23.94;61.74
15263;BME280;7733;51.554;13.590;2023-09-08T07:38:48;101013.91;;;24.24;60.71
15263;BME280;7733;51.554;13.590;2023-09-08T07:41:13;101013.09;;;24.08;60.20
15263;BME280;7733;51.554;13.590;2023-09-08T07:43:40;101020.59;;;24.17;60.61
15263;BME280;7733;51.554;13.590;2023-09-08T07:46:07;101020.59;;;24.17;60.60
15263;BME280;7733;51.554;13.590;2023-09-08T07:48:33;101017.78;;;24.48;59.73
15263;BME280;7733;51.554;13.590;2023-09-08T07:50:59;101015.97;;;24.35;59.99
15263;BME280;7733;51.554;13.590;2023-09-08T07:53:29;101015.09;;;24.63;58.09
15263;BME280;7733;51.554;13.590;2023-09-08T07:55:55;101013.78;;;24.84;57.40
15263;BME280;7733;51.554;13.590;2023-09-08T07:58:22;101009.63;;;24.93;57.22
15263;BME280;7733;51.554;13.590;2023-09-08T08:00:48;101010.50;;;24.79;56.85
15263;BME280;7733;51.554;13.590;2023-09-08T08:03:13;101010.88;;;25.01;55.87
15263;BME280;7733;51.554;13.590;2023-09-08T08:05:39;101013.97;;;25.09;55.66
15263;BME280;7733;51.554;13.590;2023-09-08T08:08:05;101019.69;;;25.17;55.42
15263;BME280;7733;51.554;13.590;2023-09-08T08:10:32;101018.38;;;25.37;55.02
15263;BME280;7733;51.554;13.590;2023-09-08T08:12:58;101008.41;;;25.66;54.63
15263;BME280;7733;51.554;13.590;2023-09-08T08:15:36;101012.63;;;25.43;55.70
15263;BME280;7733;51.554;13.590;2023-09-08T08:18:06;101003.53;;;25.86;54.89
15263;BME280;7733;51.554;13.590;2023-09-08T08:20:33;100997.97;;;26.14;53.81
15263;BME280;7733;51.554;13.590;2023-09-08T08:23:03;101004.53;;;26.10;53.92
15263;BME280;7733;51.554;13.590;2023-09-08T08:25:29;100994.97;;;26.31;53.38
15263;BME280;7733;51.554;13.590;2023-09-08T08:27:55;100992.41;;;26.43;52.73
15263;BME280;7733;51.554;13.590;2023-09-08T08:30:22;100991.34;;;26.71;52.37
15263;BME280;7733;51.554;13.590;2023-09-08T08:32:48;100989.78;;;26.79;51.53
15263;BME280;7733;51.554;13.590;2023-09-08T08:35:15;100987.41;;;27.00;51.37
15263;BME280;7733;51.554;13.590;2023-09-08T08:37:41;100987.59;;;26.97;50.79
15263;BME280;7733;51.554;13.590;2023-09-08T08:40:10;100988.41;;;27.23;50.49
15263;BME280;7733;51.554;13.590;2023-09-08T08:42:38;100984.56;;;27.14;50.43
15263;BME280;7733;51.554;13.590;2023-09-08T08:45:05;100982.94;;;27.24;49.98
15263;BME280;7733;51.554;13.590;2023-09-08T08:47:31;100984.91;;;27.57;49.84
15263;BME280;7733;51.554;13.590;2023-09-08T08:49:59;100980.34;;;27.71;49.58
15263;BME280;7733;51.554;13.590;2023-09-08T08:52:27;100978.50;;;27.71;50.03
15263;BME280;7733;51.554;13.590;2023-09-08T08:54:54;100981.44;;;27.44;50.57
15263;BME280;7733;51.554;13.590;2023-09-08T08:57:22;100973.47;;;28.13;48.87
15263;BME280;7733;51.554;13.590;2023-09-08T08:59:49;100975.75;;;28.30;49.27
15263;BME280;7733;51.554;13.590;2023-09-08T09:02:18;100982.50;;;28.58;46.99
15263;BME280;7733;51.554;13.590;2023-09-08T09:04:45;100981.78;;;28.56;47.34
15263;BME280;7733;51.554;13.590;2023-09-08T09:07:11;100974.28;;;28.93;47.43
15263;BME280;7733;51.554;13.590;2023-09-08T09:09:37;100976.34;;;28.78;47.30
15263;BME280;7733;51.554;13.590;2023-09-08T09:12:06;100968.03;;;28.93;46.44
15263;BME280;7733;51.554;13.590;2023-09-08T09:14:33;100971.16;;;29.20;45.64
15263;BME280;7733;51.554;13.590;2023-09-08T09:17:00;100965.00;;;29.29;45.02
15263;BME280;7733;51.554;13.590;2023-09-08T09:19:27;100966.44;;;29.33;45.49
15263;BME280;7733;51.554;13.590;2023-09-08T09:21:55;100960.25;;;29.54;44.88
15263;BME280;7733;51.554;13.590;2023-09-08T09:24:41;100962.31;;;29.82;44.73
15263;BME280;7733;51.554;13.590;2023-09-08T09:27:10;100969.88;;;29.47;44.49
15263;BME280;7733;51.554;13.590;2023-09-08T09:29:50;100952.84;;;29.67;44.66
15263;BME280;7733;51.554;13.590;2023-09-08T09:32:23;100948.88;;;29.92;43.22
15263;BME280;7733;51.554;13.590;2023-09-08T09:34:52;100947.56;;;30.28;42.51
15263;BME280;7733;51.554;13.590;2023-09-08T09:37:23;100952.13;;;29.86;42.63
15263;BME280;7733;51.554;13.590;2023-09-08T09:39:51;100931.53;;;30.15;41.61
15263;BME280;7733;51.554;13.590;2023-09-08T09:42:17;100942.75;;;30.11;41.25
15263;BME280;7733;51.554;13.590;2023-09-08T09:44:43;100945.25;;;30.54;41.40
15263;BME280;7733;51.554;13.590;2023-09-08T09:47:09;100951.34;;;30.16;41.19
15263;BME280;7733;51.554;13.590;2023-09-08T09:49:43;100942.31;;;30.36;40.37
15263;BME280;7733;51.554;13.590;2023-09-08T09:52:20;100944.78;;;30.70;41.20
15263;BME280;7733;51.554;13.590;2023-09-08T09:54:48;100941.03;;;30.61;40.20
15263;BME280;7733;51.554;13.590;2023-09-08T09:57:20;100941.47;;;30.36;40.13
15263;BME280;7733;51.554;13.590;2023-09-08T09:59:46;100929.09;;;30.83;39.82
15263;BME280;7733;51.554;13.590;2023-09-08T10:02:14;100930.53;;;30.77;39.90
15263;BME280;7733;51.554;13.590;2023-09-08T10:04:41;100925.19;;;31.06;39.79
15263;BME280;7733;51.554;13.590;2023-09-08T10:07:07;100932.31;;;31.07;38.83
15263;BME280;7733;51.554;13.590;2023-09-08T10:09:36;100925.25;;;30.76;38.59
15263;BME280;7733;51.554;13.590;2023-09-08T10:12:05;100928.66;;;31.28;38.32
15263;BME280;7733;51.554;13.590;2023-09-08T10:14:35;100917.38;;;31.42;38.48
15263;BME280;7733;51.554;13.590;2023-09-08T10:17:02;100928.75;;;31.16;37.47
15263;BME280;7733;51.554;13.590;2023-09-08T10:19:31;100913.09;;;31.49;37.72
15263;BME280;7733;51.554;13.590;2023-09-08T10:22:04;100916.16;;;32.12;37.99
15263;BME280;7733;51.554;13.590;2023-09-08T10:24:35;100917.88;;;32.03;37.30
15263;BME280;7733;51.554;13.590;2023-09-08T10:27:09;100921.06;;;31.89;36.78
15263;BME280;7733;51.554;13.590;2023-09-08T10:29:37;100911.06;;;31.90;36.15
15263;BME280;7733;51.554;13.590;2023-09-08T10:32:05;100902.88;;;32.09;36.42
15263;BME280;7733;51.554;13.590;2023-09-08T10:34:33;100902.38;;;32.23;36.82
15263;BME280;7733;51.554;13.590;2023-09-08T10:37:00;100903.19;;;31.96;36.47
15263;BME280;7733;51.554;13.590;2023-09-08T10:42:29;100899.50;;;32.34;35.58
15263;BME280;7733;51.554;13.590;2023-09-08T10:45:14;100898.50;;;32.63;35.38
15263;BME280;7733;51.554;13.590;2023-09-08T10:50:19;100893.91;;;32.46;36.33
15263;BME280;7733;51.554;13.590;2023-09-08T10:52:50;100886.34;;;32.67;35.23
15263;BME280;7733;51.554;13.590;2023-09-08T10:55:40;100885.34;;;32.68;34.33
15263;BME280;7733;51.554;13.590;2023-09-08T10:58:10;100881.91;;;32.66;31.32
15263;BME280;7733;51.554;13.590;2023-09-08T11:00:50;100879.97;;;32.76;31.49
15263;BME280;7733;51.554;13.590;2023-09-08T11:03:46;100881.44;;;32.98;31.14
15263;BME280;7733;51.554;13.590;2023-09-08T11:06:17;100880.25;;;32.55;31.58
15263;BME280;7733;51.554;13.590;2023-09-08T11:08:48;100884.56;;;32.85;29.76
15263;BME280;7733;51.554;13.590;2023-09-08T11:11:16;100884.78;;;32.64;29.85
15263;BME280;7733;51.554;13.590;2023-09-08T11:13:42;100882.38;;;32.89;30.94
15263;BME280;7733;51.554;13.590;2023-09-08T11:16:11;100877.00;;;33.15;29.96
15263;BME280;7733;51.554;13.590;2023-09-08T11:18:37;100878.81;;;32.79;30.12
15263;BME280;7733;51.554;13.590;2023-09-08T11:21:07;100870.63;;;33.60;29.38
15263;BME280;7733;51.554;13.590;2023-09-08T11:23:34;100872.28;;;33.35;30.38
15263;BME280;7733;51.554;13.590;2023-09-08T11:26:00;100869.63;;;33.43;30.05
15263;BME280;7733;51.554;13.590;2023-09-08T11:28:27;100875.38;;;33.40;29.68
15263;BME280;7733;51.554;13.590;2023-09-08T11:30:55;100869.56;;;33.78;29.25
15263;BME280;7733;51.554;13.590;2023-09-08T11:33:23;100873.97;;;33.53;29.82
15263;BME280;7733;51.554;13.590;2023-09-08T11:35:53;100867.56;;;34.06;30.08
15263;BME280;7733;51.554;13.590;2023-09-08T11:38:25;100864.16;;;34.04;29.96
15263;BME280;7733;51.554;13.590;2023-09-08T11:40:54;100863.44;;;34.02;29.82
15263;BME280;7733;51.554;13.590;2023-09-08T11:43:21;100865.06;;;33.87;29.63
15263;BME280;7733;51.554;13.590;2023-09-08T11:45:47;100867.03;;;34.37;29.46
15263;BME280;7733;51.554;13.590;2023-09-08T11:48:15;100853.56;;;34.01;28.78
15263;BME280;7733;51.554;13.590;2023-09-08T11:50:44;100862.69;;;33.84;29.07
15263;BME280;7733;51.554;13.590;2023-09-08T11:53:10;100860.53;;;34.04;29.24
15263;BME280;7733;51.554;13.590;2023-09-08T11:55:36;100862.03;;;34.24;28.76
15263;BME280;7733;51.554;13.590;2023-09-08T11:58:05;100855.88;;;34.48;28.84
15263;BME280;7733;51.554;13.590;2023-09-08T12:00:31;100862.00;;;34.50;28.68
15263;BME280;7733;51.554;13.590;2023-09-08T12:03:11;100855.97;;;34.04;29.48
15263;BME280;7733;51.554;13.590;2023-09-08T12:05:37;100842.91;;;34.50;27.47
15263;BME280;7733;51.554;13.590;2023-09-08T12:08:04;100842.75;;;34.17;28.28
15263;BME280;7733;51.554;13.590;2023-09-08T12:10:37;100839.97;;;34.35;28.02
15263;BME280;7733;51.554;13.590;2023-09-08T12:13:03;100838.41;;;33.99;28.99
15263;BME280;7733;51.554;13.590;2023-09-08T12:15:40;100850.22;;;34.15;28.88
15263;BME280;7733;51.554;13.590;2023-09-08T12:18:14;100849.91;;;34.18;28.44
15263;BME280;7733;51.554;13.590;2023-09-08T12:20:44;100845.34;;;33.93;28.87
15263;BME280;7733;51.554;13.590;2023-09-08T12:23:18;100850.56;;;34.12;29.12
15263;BME280;7733;51.554;13.590;2023-09-08T12:25:49;100841.56;;;34.46;28.20
15263;BME280;7733;51.554;13.590;2023-09-08T12:28:17;100845.56;;;34.00;27.95
15263;BME280;7733;51.554;13.590;2023-09-08T12:30:44;100842.28;;;34.72;28.02
15263;BME280;7733;51.554;13.590;2023-09-08T12:33:10;100844.75;;;34.41;28.07
15263;BME280;7733;51.554;13.590;2023-09-08T12:35:36;100838.78;;;34.38;27.64
15263;BME280;7733;51.554;13.590;2023-09-08T12:38:05;100840.38;;;34.23;28.16
15263;BME280;7733;51.554;13.590;2023-09-08T12:40:38;100831.06;;;34.33;28.02
15263;BME280;7733;51.554;13.590;2023-09-08T12:43:05;100826.50;;;34.92;27.77
15263;BME280;7733;51.554;13.590;2023-09-08T12:45:32;100829.56;;;34.97;27.10
15263;BME280;7733;51.554;13.590;2023-09-08T12:48:01;100828.50;;;34.66;27.49
15263;BME280;7733;51.554;13.590;2023-09-08T12:50:28;100820.53;;;34.97;27.36
15263;BME280;7733;51.554;13.590;2023-09-08T12:52:54;100817.75;;;34.81;27.71
15263;BME280;7733;51.554;13.590;2023-09-08T12:55:21;100805.53;;;35.01;27.61
15263;BME280;7733;51.554;13.590;2023-09-08T12:57:47;100810.13;;;33.66;28.30